< < Back
Terminal Aerodrome Forecast


Current Version              Previous Versions:   1  2  3  4  5  6  7  8  9  

Terminal Aerodrome Forecast

150
FTUS42 KFFC 281130
TAFPDK
TAF
KPDK 281130Z 2812/2912 34008KT P6SM SKC
     FM281500 35004KT P6SM SKC
     FM282100 26004KT P6SM SKC
     FM290000 00000KT P6SM SKC=

Latest METAR

180
SAUS70 KWBC 281400 RRJ
MTRPDK
METAR KPDK 281353Z 34006KT 9SM CLR 00/M06 A3038 RMK AO2 SLP305
T00001061


USA.gov is the U.S. government's official web portal to all federal, state and local government web resources and services.